| time (UTC) | temp F | wind direction | speed knots | gust knots | rain 1hr in | rain 24hr in | rain mn in | humidity % | barometer mb |
| 20260507030017 | 56 | 68 | 1.7 | 5.2 | 0.00 | 0.00 | 0.00 | 84 | |
| 20260507025037 | 56 | 68 | 2.6 | 6.1 | 0.00 | 0.00 | 0.00 | 83 | |
| 20260507024017 | 57 | 68 | 2.6 | 7.0 | 0.00 | 0.00 | 0.00 | 83 | |
| 20260507023017 | 57 | 90 | 3.5 | 7.8 | 0.00 | 0.00 | 0.00 | 82 | |
| 20260507022037 | 57 | 90 | 2.6 | 7.8 | 0.00 | 0.00 | 0.00 | 81 | |
| 20260507021017 | 58 | 68 | 2.6 | 8.7 | 0.00 | 0.00 | 0.00 | 81 | |
| 20260507020017 | 58 | 68 | 2.6 | 7.8 | 0.00 | 0.00 | 0.00 | 80 | |
| 20260507015037 | 58 | 68 | 1.7 | 6.1 | 0.00 | 0.00 | 0.00 | 80 | |
| 20260507014017 | 59 | 68 | 1.7 | 6.1 | 0.00 | 0.00 | 0.00 | 80 | |
| 20260507013017 | 59 | 180 | 2.6 | 7.0 | 0.00 | 0.00 | 0.00 | 79 | |
| 20260507012017 | 59 | 90 | 2.6 | 6.1 | 0.00 | 0.00 | 0.00 | 78 | |
| 20260507011017 | 60 | 90 | 1.7 | 6.1 | 0.00 | 0.00 | 0.00 | 77 | |
| 20260507010016 | 60 | 90 | 1.7 | 7.0 | 0.00 | 0.00 | 0.00 | 77 | |
| 20260507005016 | 60 | 45 | 1.7 | 7.0 | 0.00 | 0.00 | 0.00 | 76 | |
| 20260507004017 | 61 | 45 | 0.9 | 6.1 | 0.00 | 0.00 | 0.00 | 76 | |
| 20260507003016 | 61 | 45 | 0.9 | 7.0 | 0.00 | 0.00 | 0.00 | 76 | |
| 20260507002037 | 61 | 45 | 1.7 | 7.0 | 0.00 | 0.00 | 0.00 | 76 | |
| 20260507001017 | 61 | 68 | 0.9 | 5.2 | 0.00 | 0.00 | 0.00 | 75 | |
| 20260507000016 | 62 | 68 | 0.9 | 6.1 | 0.00 | 0.00 | 0.00 | 75 | |
| 20260506235017 | 62 | 90 | 1.7 | 9.6 | 0.00 | 0.00 | 0.00 | 75 | |
| 20260506234037 | 62 | 45 | 0.9 | 5.2 | 0.00 | 0.00 | 0.00 | 75 | |
| 20260506233016 | 62 | 45 | 1.7 | 7.0 | 0.00 | 0.00 | 0.00 | 75 | |
| 20260506232016 | 62 | 68 | 1.7 | 7.0 | 0.00 | 0.00 | 0.00 | 74 | |
| 20260506231017 | 63 | 23 | 0.9 | 6.1 | 0.00 | 0.00 | 0.00 | 74 | |
| 20260506230016 | 63 | 45 | 0.9 | 5.2 | 0.00 | 0.00 | 0.00 | 73 | |
| 20260506225016 | 63 | 90 | 1.7 | 7.0 | 0.00 | 0.00 | 0.00 | 73 | |
| 20260506224016 | 63 | 68 | 0.9 | 4.3 | 0.00 | 0.00 | 0.00 | 73 | |
| 20260506223037 | 64 | 45 | 0.9 | 5.2 | 0.00 | 0.00 | 0.00 | 73 | |
| 20260506222016 | 64 | 45 | 0.9 | 6.1 | 0.00 | 0.00 | 0.00 | 73 | |
| 20260506221017 | 64 | 68 | 0.9 | 6.1 | 0.00 | 0.00 | 0.00 | 73 | |
| 20260506220016 | 64 | 23 | 0.9 | 4.3 | 0.00 | 0.00 | 0.00 | 72 | |
| 20260506215016 | 64 | 23 | 0.9 | 4.3 | 0.00 | 0.00 | 0.00 | 72 | |
| 20260506214016 | 64 | 45 | 0.9 | 3.5 | 0.00 | 0.00 | 0.00 | 71 | |
| 20260506213016 | 65 | 180 | 0.9 | 3.5 | 0.00 | 0.00 | 0.00 | 71 | |
| 20260506212036 | 65 | 45 | 0.9 | 7.0 | 0.00 | 0.00 | 0.00 | 71 | |
| 20260506211017 | 65 | 23 | 0.9 | 5.2 | 0.00 | 0.00 | 0.00 | 71 | |
| 20260506210016 | 65 | 23 | 0.9 | 4.3 | 0.00 | 0.00 | 0.00 | 70 | |
| 20260506205017 | 65 | 45 | 0.9 | 4.3 | 0.00 | 0.00 | 0.00 | 70 | |
| 20260506204017 | 66 | 45 | 0.9 | 2.6 | 0.00 | 0.00 | 0.00 | 70 | |
| 20260506203016 | 66 | 45 | 0.0 | 1.7 | 0.00 | 0.00 | 0.00 | 70 | |
| 20260506202016 | 66 | 23 | 0.0 | 2.6 | 0.00 | 0.00 | 0.00 | 69 | |
| 20260506201036 | 67 | 23 | 0.0 | 2.6 | 0.00 | 0.00 | 0.00 | 68 | |
| 20260506200500 | 0 | 0.0 | 0.0 | 0.00 | 0.00 | 0.00 | |||
| 20260506200111 | 0 | 0.0 | 0.0 | 0.00 | 0.00 | 0.00 | |||
| 20260506195516 | 0 | 0.0 | 0.0 | 0.00 | 0.00 | 0.00 | |||
| 20260506194516 | 0 | 0.0 | 0.0 | 0.00 | 0.00 | 0.00 | |||
| 20260506194002 | 0 | 0.0 | 0.0 | 0.00 | 0.00 | 0.00 | |||
| 20260506193614 | 0 | 0.0 | 0.0 | 0.00 | 0.00 | 0.00 | |||
| 20260506193016 | 0 | 0.0 | 0.0 | 0.00 | 0.00 | 0.00 | |||
| 20260506192016 | 0 | 0.0 | 0.0 | 0.00 | 0.00 | 0.00 | |||
| 20260506191607 | 0 | 0.0 | 0.0 | 0.00 | 0.00 | 0.00 | |||
| 20260506191030 | 0 | 0.0 | 0.0 | 0.00 | 0.00 | 0.00 | |||
| 20260506190516 | 0 | 0.0 | 0.0 | 0.00 | 0.00 | 0.00 | |||
| 20260506185516 | 0 | 0.0 | 0.0 | 0.00 | 0.00 | 0.00 | |||
| 20260506185102 | 0 | 0.0 | 0.0 | 0.00 | 0.00 | 0.00 | |||
| 20260506184530 | 0 | 0.0 | 0.0 | 0.00 | 0.00 | 0.00 | |||
| 20260506184016 | 0 | 0.0 | 0.0 | 0.00 | 0.00 | 0.00 | |||
| 20260506183016 | 0 | 0.0 | 0.0 | 0.00 | 0.00 | 0.00 | |||
| 20260506182559 | 0 | 0.0 | 0.0 | 0.00 | 0.00 | 0.00 | |||
| 20260506182034 | 0 | 0.0 | 0.0 | 0.00 | 0.00 | 0.00 | |||
| 20260506181516 | 0 | 0.0 | 0.0 | 0.00 | 0.00 | 0.00 | |||
| 20260506180516 | 0 | 0.0 | 0.0 | 0.00 | 0.00 | 0.00 | |||
| 20260506180037 | 0 | 0.0 | 0.0 | 0.00 | 0.00 | 0.00 | |||
| 20260506175532 | 0 | 0.0 | 0.0 | 0.00 | 0.00 | 0.00 | |||
| 20260506175016 | 0 | 0.0 | 0.0 | 0.00 | 0.00 | 0.00 | |||
| 20260506174016 | 0 | 0.0 | 0.0 | 0.00 | 0.00 | 0.00 | |||
| 20260506173547 | 0 | 0.0 | 0.0 | 0.00 | 0.00 | 0.00 | |||
| 20260506173056 | 0 | 0.0 | 0.0 | 0.00 | 0.00 | 0.00 | |||
| 20260506172516 | 0 | 0.0 | 0.0 | 0.00 | 0.00 | 0.00 | |||
| 20260506171516 | 0 | 0.0 | 0.0 | 0.00 | 0.00 | 0.00 | |||
| 20260506171054 | 0 | 0.0 | 0.0 | 0.00 | 0.00 | 0.00 | |||
| 20260506170537 | 0 | 0.0 | 0.0 | 0.00 | 0.00 | 0.00 | |||
| 20260506170036 | 0 | 0.0 | 0.0 | 0.00 | 0.00 | 0.00 | |||
| 20260506165016 | 0 | 0.0 | 0.0 | 0.00 | 0.00 | 0.00 | |||
| 20260506164607 | 0 | 0.0 | 0.0 | 0.00 | 0.00 | 0.00 | |||
| 20260506164102 | 0 | 0.0 | 0.0 | 0.00 | 0.00 | 0.00 | |||
| 20260506163516 | 0 | 0.0 | 0.0 | 0.00 | 0.00 | 0.00 | |||
| 20260506162516 | 0 | 0.0 | 0.0 | 0.00 | 0.00 | 0.00 | |||
| 20260506162109 | 0 | 0.0 | 0.0 | 0.00 | 0.00 | 0.00 | |||
| 20260506161605 | 0 | 0.0 | 0.0 | 0.00 | 0.00 | 0.00 | |||
| 20260506161016 | 0 | 0.0 | 0.0 | 0.00 | 0.00 | 0.00 | |||
| 20260506160036 | 0 | 0.0 | 0.0 | 0.00 | 0.00 | 0.00 | |||
| 20260506155609 | 0 | 0.0 | 0.0 | 0.00 | 0.00 | 0.00 | |||
| 20260506155105 | 0 | 0.0 | 0.0 | 0.00 | 0.00 | 0.00 | |||
| 20260506154516 | 0 | 0.0 | 0.0 | 0.00 | 0.00 | 0.00 | |||
| 20260506153515 | 0 | 0.0 | 0.0 | 0.00 | 0.00 | 0.00 | |||
| 20260506152959 | 0 | 0.0 | 0.0 | 0.00 | 0.00 | 0.00 | |||
| 20260506152610 | 0 | 0.0 | 0.0 | 0.00 | 0.00 | 0.00 | |||
| 20260506152036 | 0 | 0.0 | 0.0 | 0.00 | 0.00 | 0.00 | |||
| 20260506151056 | 0 | 0.0 | 0.0 | 0.00 | 0.00 | 0.00 | |||
| 20260506150607 | 0 | 0.0 | 0.0 | 0.00 | 0.00 | 0.00 | |||
| 20260506145516 | 0 | 0.0 | 0.0 | 0.00 | 0.00 | 0.00 | |||
| 20260506144515 | 0 | 0.0 | 0.0 | 0.00 | 0.00 | 0.00 | |||
| 20260506144034 | 0 | 0.0 | 0.0 | 0.00 | 0.00 | 0.00 | 84 | ||
| 20260506143530 | 0 | 0.0 | 0.0 | 0.00 | 0.00 | 0.00 | 84 | ||
| 20260506143002 | 56 | 0.0 | 0.0 | 0.00 | 0.00 | 0.00 | 84 | 1021.1 | |
| 20260506142628 | 0 | 0.0 | 0.0 | 0.00 | 0.00 | 0.00 | |||
| 20260506142016 | 0 | 0.0 | 0.0 | 0.00 | 0.00 | 0.00 | |||
| 20260506141015 | 0 | 0.0 | 0.0 | 0.00 | 0.00 | 0.00 | |||
| 20260506140524 | 0 | 0.0 | 0.0 | 0.00 | 0.00 | 0.00 | |||
| 20260506140000 | 0 | 0.0 | 0.0 | 0.00 | 0.00 | 0.00 | |||
| 20260506135516 | 0 | 0.0 | 0.0 | 0.00 | 0.00 | 0.00 | |||
| 20260506134536 | 0 | 0.0 | 0.0 | 0.00 | 0.00 | 0.00 | |||
| 20260506134021 | 0 | 0.0 | 0.0 | 0.00 | 0.00 | 0.00 | |||
| 20260506133612 | 0 | 0.0 | 0.0 | 0.00 | 0.00 | 0.00 | |||
| 20260506133036 | 0 | 0.0 | 0.0 | 0.00 | 0.00 | 0.00 | |||
| 20260506132016 | 0 | 0.0 | 0.0 | 0.00 | 0.00 | 0.00 | |||
| 20260506131502 | 0 | 0.0 | 0.0 | 0.00 | 0.00 | 0.00 | |||
| 20260506131113 | 0 | 0.0 | 0.0 | 0.00 | 0.00 | 0.00 | |||
| 20260506130515 | 0 | 0.0 | 0.0 | 0.00 | 0.00 | 0.00 | |||
| 20260506125516 | 0 | 0.0 | 0.0 | 0.00 | 0.00 | 0.00 | |||
| 20260506125055 | 0 | 0.0 | 0.0 | 0.00 | 0.00 | 0.00 | |||
| 20260506124509 | 0 | 0.0 | 0.0 | 0.00 | 0.00 | 0.00 | |||
| 20260506124016 | 0 | 0.0 | 0.0 | 0.00 | 0.00 | 0.00 | |||
| 20260506123015 | 0 | 0.0 | 0.0 | 0.00 | 0.00 | 0.00 | |||
| 20260506122520 | 0 | 0.0 | 0.0 | 0.00 | 0.00 | 0.00 | |||
| 20260506122112 | 0 | 0.0 | 0.0 | 0.00 | 0.00 | 0.00 | |||
| 20260506121516 | 0 | 0.0 | 0.0 | 0.00 | 0.00 | 0.00 | |||
| 20260506120517 | 0 | 0.0 | 0.0 | 0.00 | 0.00 | 0.00 | |||
| 20260506120114 | 0 | 0.0 | 0.0 | 0.00 | 0.00 | 0.00 | |||
| 20260506115608 | 0 | 0.0 | 0.0 | 0.00 | 0.00 | 0.00 | |||
| 20260506115017 | 0 | 0.0 | 0.0 | 0.00 | 0.00 | 0.00 | |||
| 20260506114037 | 0 | 0.0 | 0.0 | 0.00 | 0.00 | 0.00 | |||
| 20260506113502 | 0 | 0.0 | 0.0 | 0.00 | 0.00 | 0.00 | |||
| 20260506113113 | 0 | 0.0 | 0.0 | 0.00 | 0.00 | 0.00 | |||
| 20260506112517 | 0 | 0.0 | 0.0 | 0.00 | 0.00 | 0.00 | |||
| 20260506111517 | 0 | 0.0 | 0.0 | 0.00 | 0.00 | 0.00 | |||
| 20260506111112 | 0 | 0.0 | 0.0 | 0.00 | 0.00 | 0.00 | |||
| 20260506110608 | 0 | 0.0 | 0.0 | 0.00 | 0.00 | 0.00 | |||
| 20260506110017 | 0 | 0.0 | 0.0 | 0.00 | 0.00 | 0.00 | |||
| 20260506105017 | 0 | 0.0 | 0.0 | 0.00 | 0.00 | 0.00 | |||
| 20260506104507 | 0 | 0.0 | 0.0 | 0.00 | 0.00 | 0.00 | |||
| 20260506104117 | 0 | 0.0 | 0.0 | 0.00 | 0.00 | 0.00 | |||
| 20260506103517 | 0 | 0.0 | 0.0 | 0.00 | 0.00 | 0.00 | |||
| 20260506102517 | 0 | 0.0 | 0.0 | 0.00 | 0.00 | 0.00 | |||
| 20260506102114 | 0 | 0.0 | 0.0 | 0.00 | 0.00 | 0.00 | |||
| 20260506101608 | 0 | 0.0 | 0.0 | 0.00 | 0.00 | 0.00 | |||
| 20260506101017 | 0 | 0.0 | 0.0 | 0.00 | 0.00 | 0.00 | |||
| 20260506100017 | 0 | 0.0 | 0.0 | 0.00 | 0.00 | 0.00 | |||
| 20260506095613 | 0 | 0.0 | 0.0 | 0.00 | 0.00 | 0.00 | |||
| 20260506095108 | 0 | 0.0 | 0.0 | 0.00 | 0.00 | 0.00 | |||
| 20260506094517 | 0 | 0.0 | 0.0 | 0.00 | 0.00 | 0.00 | |||
| 20260506093517 | 0 | 0.0 | 0.0 | 0.00 | 0.00 | 0.00 | |||
| 20260506093113 | 0 | 0.0 | 0.0 | 0.00 | 0.00 | 0.00 | |||
| 20260506092608 | 0 | 0.0 | 0.0 | 0.00 | 0.00 | 0.00 | |||
| 20260506092017 | 0 | 0.0 | 0.0 | 0.00 | 0.00 | 0.00 | |||
| 20260506091017 | 0 | 0.0 | 0.0 | 0.00 | 0.00 | 0.00 | |||
| 20260506090458 | 0 | 0.0 | 0.0 | 0.00 | 0.00 | 0.00 | |||
| 20260506090109 | 0 | 0.0 | 0.0 | 0.00 | 0.00 | 0.00 | |||
| 20260506085517 | 0 | 0.0 | 0.0 | 0.00 | 0.00 | 0.00 | |||
| 20260506084517 | 0 | 0.0 | 0.0 | 0.00 | 0.00 | 0.00 | |||
| 20260506084002 | 0 | 0.0 | 0.0 | 0.00 | 0.00 | 0.00 | |||
| 20260506083628 | 0 | 0.0 | 0.0 | 0.00 | 0.00 | 0.00 | |||
| 20260506083017 | 0 | 0.0 | 0.0 | 0.00 | 0.00 | 0.00 | |||
| 20260506082037 | 0 | 0.0 | 0.0 | 0.00 | 0.00 | 0.00 | |||
| 20260506081502 | 0 | 0.0 | 0.0 | 0.00 | 0.00 | 0.00 | |||
| 20260506081113 | 0 | 0.0 | 0.0 | 0.00 | 0.00 | 0.00 | |||
| 20260506080517 | 0 | 0.0 | 0.0 | 0.00 | 0.00 | 0.00 | |||
| 20260506073017 | 0 | 0.0 | 0.0 | 0.00 | 0.00 | 0.00 | |||
| 20260506072515 | 0 | 0.0 | 0.0 | 0.00 | 0.00 | 0.00 | |||
| 20260506072004 | 0 | 0.0 | 0.0 | 0.00 | 0.00 | 0.00 | |||
| 20260506071517 | 0 | 0.0 | 0.0 | 0.00 | 0.00 | 0.00 | |||
| 20260506070517 | 0 | 0.0 | 0.0 | 0.00 | 0.00 | 0.00 | |||
| 20260506070138 | 0 | 0.0 | 0.0 | 0.00 | 0.00 | 0.00 | |||
| 20260506061517 | 0 | 0.0 | 0.0 | 0.00 | 0.00 | 0.00 | |||
| 20260506061006 | 0 | 0.0 | 0.0 | 0.00 | 0.00 | 0.00 | |||
| 20260506060631 | 0 | 0.0 | 0.0 | 0.00 | 0.00 | 0.00 | |||
| 20260506051037 | 0 | 0.0 | 0.0 | 0.00 | 0.00 | 0.00 | |||
| 20260506045126 | 0 | 0.0 | 0.0 | 0.00 | 0.00 | 0.00 | |||
| 20260506044517 | 0 | 0.0 | 0.0 | 0.00 | 0.00 | 0.00 | |||
| 20260506043517 | 0 | 0.0 | 0.0 | 0.00 | 0.00 | 0.00 | |||
| 20260506043001 | 0 | 0.0 | 0.0 | 0.00 | 0.00 | 0.00 | |||
| 20260506042626 | 0 | 0.0 | 0.0 | 0.00 | 0.00 | 0.00 | |||
| 20260506042037 | 0 | 0.0 | 0.0 | 0.00 | 0.00 | 0.00 | |||
| 20260506041017 | 0 | 0.0 | 0.0 | 0.00 | 0.00 | 0.00 | |||
| 20260506040503 | 0 | 0.0 | 0.0 | 0.00 | 0.00 | 0.00 | |||
| 20260506040114 | 0 | 0.0 | 0.0 | 0.00 | 0.00 | 0.00 | |||
| 20260506035517 | 0 | 0.0 | 0.0 | 0.00 | 0.00 | 0.00 | |||
| 20260506034517 | 0 | 0.0 | 0.0 | 0.00 | 0.00 | 0.00 | |||
| 20260506034058 | 0 | 0.0 | 0.0 | 0.00 | 0.00 | 0.00 | |||
| 20260506033516 | 0 | 0.0 | 0.0 | 0.00 | 0.00 | 0.00 | |||
| 20260506033037 | 0 | 0.0 | 0.0 | 0.00 | 0.00 | 0.00 | |||
| 20260506032017 | 0 | 0.0 | 0.0 | 0.00 | 0.00 | 0.00 | |||
| 20260506031516 | 0 | 0.0 | 0.0 | 0.00 | 0.00 | 0.00 | |||
| 20260506031011 | 0 | 23 | 0.9 | 3.5 | 0.00 | 0.00 | 0.00 | ||
| 20260506030517 | 58 | 23 | 0.9 | 5.2 | 0.00 | 0.00 | 0.00 | 82 |